Aviation Digital Data Service (ADDS)

Output produced by TAFs form (1655 UTC 25 July 2017)
found at http://aviationweather.gov/adds/tafs/
 
KSAF 251124Z 2512/2612 36008KT P6SM BKN060 
     FM251700 23009KT P6SM SCT060 
     FM252100 24010KT P6SM VCTS BKN070CB 
     FM260000 25010KT P6SM VCSH BKN070 
     FM260300 17009KT P6SM BKN070 
     FM260900 35005KT P6SM BKN080